Time;durP1;ratioP1;P1;durP2;ratioP2;P2;SDS_P1;SDS_P2;PMS_P1;PMS_P2;Temp;Humidity;BMP_temperature;BMP_pressure;BME280_temperature;BME280_humidity;BME280_pressure;Samples;Min_cycle;Max_cycle;Signal;HPM_P1;HPM_P2
2021/04/19 00:00:28;;;;;;;32.85;25.48;;;;;;;0.83;100.00;96155.94;1016398;29;20047;-51
2021/04/19 00:00:59;;;;;;;30.77;24.42;;;;;;;0.84;100.00;96155.88;1020235;29;20024;-50
2021/04/19 00:01:30;;;;;;;29.33;24.58;;;;;;;0.83;100.00;96156.78;1008658;29;20100;-49
2021/04/19 00:02:00;;;;;;;29.63;24.02;;;;;;;0.86;100.00;96154.09;1012387;29;20027;-50
2021/04/19 00:02:31;;;;;;;33.20;25.48;;;;;;;0.84;100.00;96150.72;1012599;29;20112;-50
2021/04/19 00:03:02;;;;;;;29.83;24.48;;;;;;;0.82;100.00;96155.06;1020374;29;20020;-50
2021/04/19 00:03:33;;;;;;;31.75;24.38;;;;;;;0.86;100.00;96153.25;1020258;29;20078;-49
2021/04/19 00:04:03;;;;;;;32.33;25.73;;;;;;;0.86;100.00;96155.81;1016247;29;20012;-51
2021/04/19 00:04:34;;;;;;;31.52;25.38;;;;;;;0.87;100.00;96155.78;1012571;29;20024;-50
2021/04/19 00:05:08;;;;;;;35.85;25.02;;;;;;;0.87;100.00;96155.78;1009237;29;20033;-50
2021/04/19 00:05:38;;;;;;;33.30;24.85;;;;;;;0.88;100.00;96154.91;1008630;29;20025;-50
2021/04/19 00:06:09;;;;;;;30.33;23.90;;;;;;;0.89;100.00;96156.59;1004571;29;20262;-52
2021/04/19 00:06:40;;;;;;;30.75;24.65;;;;;;;0.89;100.00;96159.16;1008522;29;20026;-51
2021/04/19 00:07:11;;;;;;;30.42;24.33;;;;;;;0.93;100.00;96157.34;1008535;29;20124;-51
2021/04/19 00:07:42;;;;;;;30.58;24.52;;;;;;;0.93;100.00;96155.59;1008723;29;20285;-50
2021/04/19 00:08:13;;;;;;;31.02;24.77;;;;;;;0.93;100.00;96157.34;1012373;29;20032;-50
2021/04/19 00:08:44;;;;;;;30.35;23.90;;;;;;;0.93;100.00;96149.59;1016289;29;20059;-50
2021/04/19 00:09:15;;;;;;;31.45;23.67;;;;;;;0.96;100.00;96152.94;1020354;29;20103;-49
2021/04/19 00:09:47;;;;;;;32.60;24.10;;;;;;;0.97;100.00;96154.63;1016496;29;20259;-48
2021/04/19 00:10:19;;;;;;;30.83;24.42;;;;;;;0.99;100.00;96151.16;1012404;29;20260;-51
2021/04/19 00:10:50;;;;;;;30.80;24.33;;;;;;;0.93;100.00;96158.19;1016357;29;20260;-50
2021/04/19 00:11:21;;;;;;;32.38;25.08;;;;;;;0.93;100.00;96157.34;1008625;29;20333;-50
2021/04/19 00:11:52;;;;;;;31.08;24.83;;;;;;;0.97;100.00;96153.78;1008650;29;20253;-52
2021/04/19 00:12:22;;;;;;;31.33;24.45;;;;;;;1.00;100.00;96156.28;1004629;29;20018;-51
2021/04/19 00:12:53;;;;;;;31.08;24.90;;;;;;;0.99;100.00;96153.75;1012547;29;20027;-49
2021/04/19 00:13:24;;;;;;;33.20;25.35;;;;;;;1.01;100.00;96157.13;1008522;29;20017;-50
2021/04/19 00:13:55;;;;;;;32.30;24.80;;;;;;;0.99;100.00;96153.75;1008499;29;20396;-50
2021/04/19 00:14:26;;;;;;;30.70;24.38;;;;;;;1.00;100.00;96155.44;1008568;29;20455;-51
2021/04/19 00:14:57;;;;;;;31.23;25.52;;;;;;;0.97;100.00;96152.03;1008621;29;20293;-50
2021/04/19 00:15:29;;;;;;;32.20;25.48;;;;;;;0.94;100.00;96152.16;1016295;29;20058;-51
2021/04/19 00:16:00;;;;;;;30.83;25.02;;;;;;;0.92;100.00;96153.94;1020283;29;20050;-49
2021/04/19 00:16:31;;;;;;;32.45;25.73;;;;;;;0.93;100.00;96147.88;1012405;29;20324;-49
2021/04/19 00:17:02;;;;;;;32.22;25.58;;;;;;;0.83;100.00;96128.41;1016214;29;20173;-48
2021/04/19 00:17:33;;;;;;;31.35;24.30;;;;;;;0.93;100.00;96150.44;1024253;29;20070;-50
2021/04/19 00:18:04;;;;;;;29.92;24.65;;;;;;;0.92;100.00;96148.78;1008575;29;20354;-49
2021/04/19 00:18:34;;;;;;;28.88;24.05;;;;;;;0.93;100.00;96149.59;1008648;29;20031;-50
2021/04/19 00:19:05;;;;;;;30.75;23.83;;;;;;;0.90;100.00;96141.94;1012396;29;20627;-50
2021/04/19 00:19:36;;;;;;;32.35;25.63;;;;;;;0.90;100.00;96147.09;1016404;29;20515;-50
2021/04/19 00:20:07;;;;;;;31.15;25.00;;;;;;;0.90;100.00;96149.69;1008561;29;20116;-51
2021/04/19 00:20:38;;;;;;;30.90;24.17;;;;;;;0.85;100.00;96144.69;1008606;29;20582;-50
2021/04/19 00:21:09;;;;;;;31.38;25.80;;;;;;;0.83;100.00;96153.34;1008465;29;20281;-49
2021/04/19 00:21:40;;;;;;;36.13;26.58;;;;;;;0.80;100.00;96149.09;1012404;29;20309;-50
2021/04/19 00:22:11;;;;;;;34.65;27.13;;;;;;;0.82;100.00;96141.34;1012454;29;20103;-50
2021/04/19 00:22:42;;;;;;;32.55;25.40;;;;;;;0.83;100.00;96146.44;1016328;29;20115;-50
2021/04/19 00:23:13;;;;;;;32.65;24.02;;;;;;;0.79;100.00;96155.19;1008416;29;20044;-50
2021/04/19 00:23:43;;;;;;;34.90;25.92;;;;;;;0.78;100.00;96151.72;1016152;29;20510;-49
2021/04/19 00:24:14;;;;;;;36.47;25.17;;;;;;;0.77;100.00;96149.22;1012371;29;20024;-51
2021/04/19 00:24:45;;;;;;;37.75;28.13;;;;;;;0.75;100.00;96150.97;1020325;29;20024;-49
2021/04/19 00:25:16;;;;;;;33.08;25.83;;;;;;;0.75;100.00;96148.38;1008378;29;20543;-49
2021/04/19 00:25:47;;;;;;;35.25;26.45;;;;;;;0.75;100.00;96143.22;1020221;29;20031;-48
2021/04/19 00:26:18;;;;;;;32.05;25.50;;;;;;;0.81;100.00;96145.66;1016342;29;20337;-50
2021/04/19 00:26:49;;;;;;;32.20;24.98;;;;;;;0.81;100.00;96147.38;1020117;29;20020;-51
2021/04/19 00:27:19;;;;;;;35.05;28.02;;;;;;;0.83;100.00;96149.03;1020104;29;20079;-50
2021/04/19 00:27:50;;;;;;;35.20;27.10;;;;;;;0.80;100.00;96141.38;1012440;29;20024;-50
2021/04/19 00:28:21;;;;;;;38.53;26.65;;;;;;;0.75;100.00;96144.09;1020146;29;20091;-50
2021/04/19 00:28:52;;;;;;;33.90;25.00;;;;;;;0.73;100.00;96142.44;1020122;29;20674;-49
2021/04/19 00:29:23;;;;;;;35.22;27.02;;;;;;;0.70;100.00;96140.78;1016303;29;20450;-50
2021/04/19 00:29:54;;;;;;;35.75;26.77;;;;;;;0.72;100.00;96146.75;1016242;29;20451;-49
2021/04/19 00:30:25;;;;;;;38.85;27.83;;;;;;;0.73;100.00;96147.59;1020216;29;20279;-51
2021/04/19 00:30:56;;;;;;;33.40;26.02;;;;;;;0.68;100.00;96144.31;1012444;29;20025;-48
2021/04/19 00:31:27;;;;;;;33.97;27.40;;;;;;;0.65;100.00;96139.25;1020111;29;20709;-50
2021/04/19 00:31:58;;;;;;;36.63;27.75;;;;;;;0.67;100.00;96142.63;1012353;29;20056;-49
2021/04/19 00:32:28;;;;;;;36.63;26.85;;;;;;;0.64;100.00;96135.81;1016195;29;20122;-51
2021/04/19 00:32:59;;;;;;;35.35;27.10;;;;;;;0.69;100.00;96143.41;1012305;29;20025;-50
2021/04/19 00:33:30;;;;;;;34.75;26.35;;;;;;;0.72;100.00;96139.00;1015983;29;20098;-49
2021/04/19 00:34:02;;;;;;;29.90;25.08;;;;;;;0.74;100.00;96141.56;1016320;29;20410;-51
2021/04/19 00:34:33;;;;;;;32.50;25.77;;;;;;;0.77;100.00;96139.75;1016310;29;20426;-49
2021/04/19 00:35:06;;;;;;;34.75;26.25;;;;;;;0.82;100.00;96141.34;1016276;29;20291;-50
2021/04/19 00:35:36;;;;;;;33.20;24.65;;;;;;;0.80;100.00;96143.94;1012375;29;20530;-50
2021/04/19 00:36:08;;;;;;;33.30;26.23;;;;;;;0.81;100.00;96137.91;1016159;29;20347;-48
2021/04/19 00:36:38;;;;;;;33.78;26.83;;;;;;;0.83;100.00;96138.72;1020057;29;20035;-49
2021/04/19 00:37:09;;;;;;;35.40;25.92;;;;;;;0.84;100.00;96137.81;1020185;29;20611;-50
2021/04/19 00:37:40;;;;;;;30.77;24.67;;;;;;;0.88;100.00;96136.84;1012292;29;20529;-49
2021/04/19 00:38:11;;;;;;;33.92;26.05;;;;;;;0.90;100.00;96136.78;1012319;29;20056;-51
2021/04/19 00:38:42;;;;;;;30.17;25.00;;;;;;;0.90;100.00;96139.38;1012419;29;20017;-49
2021/04/19 00:39:13;;;;;;;33.00;26.10;;;;;;;0.91;100.00;96133.34;1016249;29;20028;-50
2021/04/19 00:39:44;;;;;;;31.58;25.73;;;;;;;0.94;100.00;96128.09;1012336;29;20035;-49
2021/04/19 00:40:17;;;;;;;31.75;25.67;;;;;;;0.96;100.00;96134.06;1016139;29;20024;-50
2021/04/19 00:40:48;;;;;;;34.67;25.60;;;;;;;0.95;100.00;96133.19;1016233;29;20024;-50
2021/04/19 00:41:19;;;;;;;33.50;24.63;;;;;;;0.93;100.00;96128.97;1012358;29;20284;-49
2021/04/19 00:41:50;;;;;;;31.88;25.63;;;;;;;0.96;100.00;96134.06;1016211;29;20043;-50
2021/04/19 00:42:21;;;;;;;32.60;25.42;;;;;;;0.84;100.00;96118.91;1028153;28;20266;-50
2021/04/19 00:42:52;;;;;;;32.67;24.60;;;;;;;0.97;100.00;96135.72;1020085;29;20541;-49
2021/04/19 00:43:23;;;;;;;32.83;25.88;;;;;;;0.95;100.00;96129.75;1019995;29;20292;-51
2021/04/19 00:43:54;;;;;;;33.40;25.00;;;;;;;0.96;100.00;96132.31;1015979;29;20260;-50
2021/04/19 00:44:25;;;;;;;33.58;24.50;;;;;;;0.93;100.00;96129.81;1016151;29;20024;-50
2021/04/19 00:44:56;;;;;;;31.20;25.48;;;;;;;0.94;100.00;96128.09;1020181;29;20034;-51
2021/04/19 00:45:27;;;;;;;30.67;24.10;;;;;;;0.96;100.00;96132.31;1012288;29;20059;-49
2021/04/19 00:46:02;;;;;;;32.30;24.00;;;;;;;0.94;100.00;96131.50;1016332;29;20031;-50
2021/04/19 00:46:33;;;;;;;33.42;24.73;;;;;;;0.94;100.00;96133.25;1024165;29;20410;-50
2021/04/19 00:47:05;;;;;;;31.45;25.15;;;;;;;0.89;100.00;96129.97;1012066;29;20297;-49
2021/04/19 00:47:37;;;;;;;31.52;24.63;;;;;;;0.94;100.00;96128.94;1019379;29;20500;-50
2021/04/19 00:48:08;;;;;;;32.00;24.85;;;;;;;0.96;100.00;96131.47;1015915;29;20638;-48
2021/04/19 00:48:39;;;;;;;32.20;25.95;;;;;;;0.91;100.00;96125.59;1008420;29;20462;-49
2021/04/19 00:49:10;;;;;;;29.88;23.90;;;;;;;0.97;100.00;96127.97;1012330;29;20308;-50
2021/04/19 00:49:41;;;;;;;31.00;23.83;;;;;;;0.98;100.00;96137.44;1012318;29;20111;-49
2021/04/19 00:50:18;;;;;;;29.10;23.50;;;;;;;0.97;100.00;96125.41;1016137;29;20260;-50
2021/04/19 00:50:55;;;;;;;33.17;26.17;;;;;;;1.05;100.00;96130.34;1016248;29;20451;-49
2021/04/19 00:51:25;;;;;;;29.95;23.55;;;;;;;1.06;100.00;96130.28;1020032;29;20259;-51
2021/04/19 00:51:56;;;;;;;33.55;24.40;;;;;;;1.08;100.00;96130.25;1008527;29;20258;-50
2021/04/19 00:52:27;;;;;;;33.55;24.73;;;;;;;1.10;100.00;96126.72;1012180;29;20545;-50
2021/04/19 00:53:00;;;;;;;29.60;23.70;;;;;;;1.14;100.00;96124.91;1012287;29;20039;-51
2021/04/19 00:53:31;;;;;;;29.13;23.27;;;;;;;1.15;100.00;96126.59;1016046;29;20111;-53
2021/04/19 00:54:02;;;;;;;30.33;23.48;;;;;;;1.16;100.00;96126.56;1020181;29;20441;-50
2021/04/19 00:54:33;;;;;;;30.15;24.23;;;;;;;1.17;100.00;96132.56;1012303;29;20277;-50
2021/04/19 00:55:09;;;;;;;29.45;24.05;;;;;;;1.16;100.00;96136.88;1016329;29;20363;-49
2021/04/19 00:55:40;;;;;;;33.28;24.13;;;;;;;1.19;100.00;96127.34;1017246;29;20331;-53
2021/04/19 00:56:11;;;;;;;35.65;25.15;;;;;;;1.15;100.00;96130.00;1012123;29;20339;-49
2021/04/19 00:56:42;;;;;;;35.28;26.15;;;;;;;1.14;100.00;96136.06;1004465;29;20053;-51
2021/04/19 00:57:13;;;;;;;31.10;24.50;;;;;;;1.11;100.00;96133.59;1020102;29;20271;-49
2021/04/19 00:57:44;;;;;;;29.20;23.20;;;;;;;1.14;100.00;96133.47;1012393;29;20123;-50
2021/04/19 00:58:16;;;;;;;29.95;23.90;;;;;;;1.05;100.00;96135.50;1016206;29;20435;-49
2021/04/19 00:58:47;;;;;;;28.05;22.08;;;;;;;1.06;100.00;96130.28;1012266;29;20261;-50
2021/04/19 00:59:18;;;;;;;30.55;23.25;;;;;;;0.99;100.00;96138.25;1012376;29;20293;-49
2021/04/19 00:59:48;;;;;;;30.20;23.67;;;;;;;1.03;100.00;96142.44;1016174;29;20024;-50
2021/04/19 01:00:29;;;;;;;33.10;23.92;;;;;;;1.01;100.00;96105.53;1016028;29;20284;-50
2021/04/19 01:01:00;;;;;;;30.40;23.63;;;;;;;1.12;100.00;96135.25;1024140;29;20024;-52
2021/04/19 01:01:33;;;;;;;32.33;23.30;;;;;;;1.11;100.00;96133.59;1020084;29;20267;-50
2021/04/19 01:02:04;;;;;;;29.65;24.08;;;;;;;1.12;100.00;96134.41;1024063;29;20015;-51
2021/04/19 01:02:35;;;;;;;29.58;24.60;;;;;;;1.11;100.00;96130.16;1020005;29;20262;-50
2021/04/19 01:03:06;;;;;;;28.88;22.80;;;;;;;1.15;100.00;96140.34;1012264;29;20025;-50
2021/04/19 01:03:37;;;;;;;31.73;23.67;;;;;;;1.08;100.00;96125.94;1012169;29;20043;-52
2021/04/19 01:04:07;;;;;;;28.08;23.42;;;;;;;1.13;100.00;96136.13;1012130;29;20035;-49
2021/04/19 01:04:38;;;;;;;27.33;22.60;;;;;;;1.08;100.00;96131.09;1012002;29;20253;-51
2021/04/19 01:05:11;;;;;;;30.67;24.15;;;;;;;1.07;100.00;96132.00;1012373;29;20040;-49
2021/04/19 01:05:42;;;;;;;31.02;23.55;;;;;;;1.09;100.00;96134.50;1012309;29;20025;-51
2021/04/19 01:06:13;;;;;;;31.23;24.20;;;;;;;1.10;100.00;96131.03;1016173;29;20335;-48
2021/04/19 01:06:44;;;;;;;28.80;23.58;;;;;;;1.10;100.00;96133.63;1019901;29;20263;-49
2021/04/19 01:07:15;;;;;;;29.52;23.60;;;;;;;1.08;100.00;96127.66;1016175;29;20079;-47
2021/04/19 01:07:46;;;;;;;31.75;23.90;;;;;;;1.13;100.00;96133.53;1020015;29;20034;-49
2021/04/19 01:08:16;;;;;;;28.88;23.75;;;;;;;1.13;100.00;96125.81;1023971;29;20029;-50
2021/04/19 01:08:47;;;;;;;30.27;24.95;;;;;;;1.16;100.00;96126.56;1020022;29;20012;-49
2021/04/19 01:09:18;;;;;;;31.10;24.35;;;;;;;1.14;100.00;96125.72;1023960;29;20477;-51
2021/04/19 01:09:49;;;;;;;31.08;23.23;;;;;;;1.20;100.00;96124.69;1016117;29;20035;-51
2021/04/19 01:10:20;;;;;;;30.90;24.02;;;;;;;1.11;100.00;96122.44;1016158;29;20024;-50
2021/04/19 01:10:51;;;;;;;32.42;24.73;;;;;;;1.13;100.00;96120.66;1015973;29;20028;-50
2021/04/19 01:11:22;;;;;;;27.27;21.90;;;;;;;1.15;100.00;96126.59;1016137;29;20016;-50
2021/04/19 01:11:53;;;;;;;33.13;23.88;;;;;;;1.14;100.00;96125.72;1016151;29;20264;-50
2021/04/19 01:12:24;;;;;;;27.38;23.10;;;;;;;1.11;100.00;96123.25;1012156;29;20031;-51
2021/04/19 01:12:54;;;;;;;32.13;25.17;;;;;;;1.09;100.00;96119.03;1015995;29;20111;-53
2021/04/19 01:13:25;;;;;;;30.75;23.92;;;;;;;1.10;100.00;96125.88;1008336;29;20476;-50
2021/04/19 01:13:56;;;;;;;31.60;23.83;;;;;;;1.12;100.00;96122.34;1012137;29;20556;-50
2021/04/19 01:14:27;;;;;;;32.00;25.35;;;;;;;1.09;100.00;96117.31;1020001;28;20012;-50
2021/04/19 01:14:58;;;;;;;30.63;23.75;;;;;;;1.09;100.00;96124.19;1016101;29;20024;-50
2021/04/19 01:15:28;;;;;;;32.50;25.35;;;;;;;1.06;100.00;96124.28;1016097;29;20051;-51
2021/04/19 01:16:00;;;;;;;33.38;25.40;;;;;;;1.11;100.00;96122.44;1016128;29;20025;-50
2021/04/19 01:16:30;;;;;;;31.48;24.25;;;;;;;1.10;100.00;96131.03;1008430;29;20017;-49
2021/04/19 01:17:01;;;;;;;29.65;23.52;;;;;;;1.04;100.00;96121.75;1012007;29;20351;-49
2021/04/19 01:17:32;;;;;;;32.10;24.38;;;;;;;1.05;100.00;96128.63;1008335;29;20045;-50
2021/04/19 01:18:04;;;;;;;31.67;24.30;;;;;;;1.04;100.00;96126.09;1004592;29;20625;-50
2021/04/19 01:18:35;;;;;;;29.80;24.30;;;;;;;1.08;100.00;96122.50;1012283;29;20818;-49
2021/04/19 01:19:05;;;;;;;29.88;24.25;;;;;;;1.05;100.00;96122.59;1012128;29;20363;-50
2021/04/19 01:19:37;;;;;;;32.03;23.95;;;;;;;1.03;100.00;96122.63;1016082;29;20264;-50
2021/04/19 01:20:09;;;;;;;29.10;23.25;;;;;;;1.07;100.00;96116.50;1016130;29;20565;-50
2021/04/19 01:20:41;;;;;;;33.20;23.95;;;;;;;1.09;100.00;96124.19;1012213;29;20376;-49
2021/04/19 01:21:12;;;;;;;31.63;24.23;;;;;;;1.03;100.00;96120.06;1023830;29;20275;-50
2021/04/19 01:21:42;;;;;;;30.80;23.90;;;;;;;1.04;100.00;96121.75;1012218;29;20253;-50
2021/04/19 01:22:13;;;;;;;34.42;24.75;;;;;;;1.03;100.00;96122.63;1016067;29;20495;-50
2021/04/19 01:22:44;;;;;;;29.60;23.42;;;;;;;0.97;100.00;96126.25;1019997;29;20024;-49
2021/04/19 01:23:16;;;;;;;29.92;23.40;;;;;;;0.89;100.00;96106.75;1011978;29;20399;-50
2021/04/19 01:23:47;;;;;;;32.17;24.67;;;;;;;1.05;100.00;96123.47;1008203;29;20265;-49
2021/04/19 01:24:17;;;;;;;28.80;23.48;;;;;;;1.11;100.00;96130.16;1008397;29;20344;-50
2021/04/19 01:24:48;;;;;;;32.25;23.95;;;;;;;1.12;100.00;96118.94;1012099;29;20023;-50
2021/04/19 01:25:21;;;;;;;32.05;24.25;;;;;;;1.08;100.00;96125.09;1008329;29;20030;-51
2021/04/19 01:25:52;;;;;;;31.42;24.98;;;;;;;1.06;100.00;96125.13;1012192;29;20108;-49
2021/04/19 01:26:24;;;;;;;30.60;24.38;;;;;;;1.10;100.00;96121.56;1020090;29;20266;-50
2021/04/19 01:26:54;;;;;;;31.95;25.30;;;;;;;1.08;100.00;96127.66;1016047;29;20260;-50
2021/04/19 01:27:25;;;;;;;32.67;25.67;;;;;;;1.08;100.00;96125.94;1008284;29;20290;-51
2021/04/19 01:27:56;;;;;;;30.88;24.40;;;;;;;1.11;100.00;96123.25;1015984;29;20028;-50
2021/04/19 01:28:27;;;;;;;27.95;22.63;;;;;;;1.16;100.00;96113.66;1019860;29;20024;-51
2021/04/19 01:28:58;;;;;;;31.15;24.77;;;;;;;1.17;100.00;96120.50;1012149;29;20261;-50
2021/04/19 01:29:29;;;;;;;30.63;24.95;;;;;;;1.13;100.00;96112.91;1012089;29;20066;-51
2021/04/19 01:30:00;;;;;;;30.02;23.92;;;;;;;1.09;100.00;96116.44;1019960;29;20251;-49
2021/04/19 01:30:35;;;;;;;30.45;23.10;;;;;;;1.17;100.00;96119.66;1016088;29;20020;-52
2021/04/19 01:31:06;;;;;;;31.20;24.23;;;;;;;1.13;100.00;96118.06;1012130;29;20269;-50
2021/04/19 01:31:37;;;;;;;30.30;24.30;;;;;;;1.07;100.00;96113.06;1016040;29;20623;-50
2021/04/19 01:32:08;;;;;;;29.17;24.45;;;;;;;1.08;100.00;96118.19;1016002;29;20030;-49
2021/04/19 01:32:39;;;;;;;27.73;22.50;;;;;;;1.11;100.00;96122.44;1016096;29;20031;-49
2021/04/19 01:33:10;;;;;;;28.05;22.27;;;;;;;1.17;100.00;96122.22;1008284;29;20800;-51
2021/04/19 01:33:40;;;;;;;30.13;24.75;;;;;;;1.16;100.00;96117.94;1015917;29;20047;-50
2021/04/19 01:34:11;;;;;;;32.88;25.65;;;;;;;1.11;100.00;96112.94;1016159;29;20288;-52
2021/04/19 01:34:43;;;;;;;31.35;24.30;;;;;;;1.07;100.00;96113.94;1012189;29;20554;-50
2021/04/19 01:35:14;;;;;;;29.58;24.05;;;;;;;1.07;100.00;96113.94;1008292;29;20025;-51
2021/04/19 01:35:45;;;;;;;31.40;25.05;;;;;;;1.04;100.00;96118.34;1015981;29;20620;-50
2021/04/19 01:36:16;;;;;;;30.08;23.77;;;;;;;1.05;100.00;96120.00;1012146;29;20020;-50
2021/04/19 01:36:47;;;;;;;31.42;24.17;;;;;;;1.14;100.00;96115.41;1019959;29;20263;-50
2021/04/19 01:37:18;;;;;;;28.65;22.70;;;;;;;1.19;100.00;96111.88;1012165;29;20043;-50
2021/04/19 01:37:49;;;;;;;27.30;22.10;;;;;;;1.18;100.00;96116.16;1012256;29;20769;-49
2021/04/19 01:38:22;;;;;;;29.50;24.40;;;;;;;1.14;100.00;96122.31;1015890;29;20499;-50
2021/04/19 01:38:53;;;;;;;31.20;24.63;;;;;;;1.14;100.00;96117.16;1012254;29;20481;-50
2021/04/19 01:39:24;;;;;;;28.65;23.70;;;;;;;1.08;100.00;96118.19;1012072;29;20257;-50
2021/04/19 01:39:54;;;;;;;34.70;25.42;;;;;;;1.01;100.00;96121.00;1012187;29;20459;-49
2021/04/19 01:40:27;;;;;;;29.52;23.88;;;;;;;1.02;100.00;96122.69;1012091;29;20474;-50
2021/04/19 01:40:58;;;;;;;39.47;25.77;;;;;;;1.04;100.00;96118.34;1012204;29;20033;-50
2021/04/19 01:41:29;;;;;;;30.23;23.33;;;;;;;0.96;100.00;96108.25;1019896;29;20701;-50
2021/04/19 01:42:00;;;;;;;30.48;24.42;;;;;;;1.06;100.00;96112.22;1016014;29;20463;-50
2021/04/19 01:42:31;;;;;;;33.03;25.42;;;;;;;1.06;100.00;96121.72;1008027;29;20356;-50
2021/04/19 01:43:02;;;;;;;31.48;24.20;;;;;;;1.07;100.00;96124.25;1012154;29;20072;-51
2021/04/19 01:43:33;;;;;;;31.85;22.88;;;;;;;1.10;100.00;96118.16;1015763;29;20107;-50
2021/04/19 01:44:04;;;;;;;31.77;25.48;;;;;;;1.04;100.00;96123.50;1023695;29;20259;-51
2021/04/19 01:44:35;;;;;;;33.03;23.30;;;;;;;1.05;100.00;96120.88;1012048;29;20016;-50
2021/04/19 01:45:07;;;;;;;31.00;24.60;;;;;;;1.02;100.00;96117.53;1015973;29;20111;-56
2021/04/19 01:45:38;;;;;;;31.95;25.48;;;;;;;1.01;100.00;96116.69;1012035;29;20747;-50
2021/04/19 01:46:08;;;;;;;33.97;24.48;;;;;;;0.99;100.00;96122.78;1023807;29;20266;-50
2021/04/19 01:46:40;;;;;;;33.92;26.15;;;;;;;0.95;100.00;96119.44;1019713;29;20302;-49
2021/04/19 01:47:11;;;;;;;33.85;24.85;;;;;;;0.93;100.00;96116.06;1016026;29;20017;-50
2021/04/19 01:47:43;;;;;;;30.75;23.70;;;;;;;0.90;100.00;96117.03;1015907;29;20699;-50
2021/04/19 01:48:14;;;;;;;32.42;24.45;;;;;;;0.91;100.00;96115.28;1019934;29;20347;-49
2021/04/19 01:48:45;;;;;;;30.73;23.65;;;;;;;0.97;100.00;96121.09;1008155;29;20261;-50
2021/04/19 01:49:16;;;;;;;30.85;24.70;;;;;;;0.93;100.00;96116.06;1019938;29;20031;-50
2021/04/19 01:49:47;;;;;;;28.95;23.65;;;;;;;1.00;100.00;96117.59;1015957;29;20398;-50
2021/04/19 01:50:21;;;;;;;31.00;24.80;;;;;;;0.94;100.00;96120.34;1019912;29;20721;-51
2021/04/19 01:50:53;;;;;;;30.90;23.40;;;;;;;0.98;100.00;96121.94;1019243;29;20275;-49
2021/04/19 01:51:27;;;;;;;29.95;23.85;;;;;;;0.92;100.00;96120.41;1016042;29;20265;-48
2021/04/19 01:51:58;;;;;;;30.67;24.75;;;;;;;0.84;100.00;96116.34;1019881;29;20303;-49
2021/04/19 01:52:29;;;;;;;30.83;24.25;;;;;;;0.83;100.00;96118.09;1023733;29;20273;-50
2021/04/19 01:53:00;;;;;;;30.13;23.98;;;;;;;0.83;100.00;96128.41;1023856;29;20251;-50
2021/04/19 01:53:31;;;;;;;35.78;25.58;;;;;;;0.84;100.00;96127.50;1023664;29;20027;-50
2021/04/19 01:54:02;;;;;;;31.30;25.42;;;;;;;0.88;100.00;96123.97;1012141;29;20300;-50
2021/04/19 01:54:33;;;;;;;35.85;26.23;;;;;;;0.94;100.00;96128.09;1015890;29;20343;-51
2021/04/19 01:55:07;;;;;;;33.45;25.27;;;;;;;0.77;100.00;96107.94;1016032;29;20272;-50
2021/04/19 01:55:38;;;;;;;30.77;25.33;;;;;;;0.89;100.00;96132.53;1019930;29;20023;-50
2021/04/19 01:56:08;;;;;;;29.23;24.27;;;;;;;0.90;100.00;96126.47;1015832;29;20718;-51
2021/04/19 01:56:39;;;;;;;33.40;25.85;;;;;;;0.88;100.00;96123.97;1007951;29;20029;-50
2021/04/19 01:57:11;;;;;;;29.83;24.13;;;;;;;0.85;100.00;96105.97;1008165;29;20491;-50
2021/04/19 01:57:43;;;;;;;32.58;25.50;;;;;;;0.93;100.00;96131.53;1012017;29;20056;-51
2021/04/19 01:58:18;;;;;;;29.40;22.85;;;;;;;0.92;100.00;96122.09;1015944;29;20276;-50
2021/04/19 01:58:49;;;;;;;28.42;24.08;;;;;;;0.94;100.00;96125.50;1011688;29;20459;-49
2021/04/19 01:59:19;;;;;;;33.03;25.08;;;;;;;0.93;100.00;96123.81;1012116;29;20265;-50
2021/04/19 01:59:51;;;;;;;29.83;23.92;;;;;;;0.90;100.00;96121.31;1023904;29;20282;-50
2021/04/19 02:00:23;;;;;;;31.42;24.58;;;;;;;0.93;100.00;96121.22;1012060;29;20032;-50
2021/04/19 02:00:57;;;;;;;31.02;24.70;;;;;;;0.99;100.00;96122.78;1011970;29;20843;-50
2021/04/19 02:01:28;;;;;;;30.67;23.88;;;;;;;1.02;100.00;96122.69;1015945;29;20299;-47
2021/04/19 02:02:04;;;;;;;31.65;24.42;;;;;;;0.99;100.00;96120.19;1012060;29;20308;-50
2021/04/19 02:02:46;;;;;;;33.83;24.77;;;;;;;0.95;100.00;96120.28;1015985;29;20063;-50
2021/04/19 02:03:28;;;;;;;32.83;24.20;;;;;;;1.01;100.00;96121.84;1008141;29;20668;-49
2021/04/19 02:04:05;;;;;;;36.15;25.48;;;;;;;0.99;100.00;96120.19;1015793;29;20604;-50
2021/04/19 02:04:56;;;;;;;31.42;24.20;;;;;;;0.95;100.00;96128.03;1015989;29;20287;-50
2021/04/19 02:05:46;;;;;;;29.17;23.20;;;;;;;0.96;100.00;96123.72;1019903;29;20351;-52
2021/04/19 02:06:29;;;;;;;31.95;25.35;;;;;;;0.87;100.00;96124.84;1017348;29;20495;-49
2021/04/19 02:07:09;;;;;;;32.67;24.38;;;;;;;0.90;100.00;96124.75;1011977;29;20033;-50
2021/04/19 02:07:51;;;;;;;30.52;24.95;;;;;;;0.92;100.00;96128.13;1015914;29;20268;-51
2021/04/19 02:08:35;;;;;;;32.92;24.77;;;;;;;0.97;100.00;96126.25;1015973;29;20036;-49
2021/04/19 02:09:19;;;;;;;32.13;24.17;;;;;;;0.98;100.00;96124.53;1012040;29;20305;-49
2021/04/19 02:09:56;;;;;;;30.42;23.88;;;;;;;0.99;100.00;96120.19;1015928;29;20360;-49
2021/04/19 02:10:44;;;;;;;32.92;25.60;;;;;;;0.87;100.00;96104.19;1012133;29;20269;-50
2021/04/19 02:11:35;;;;;;;33.58;24.55;;;;;;;0.92;100.00;96116.94;1011975;29;20674;-49
2021/04/19 02:12:07;;;;;;;;;;;;;;;0.90;100.00;96118.72;1014674;29;20319;-49
2021/04/19 02:12:46;;;;;;;34.38;24.25;;;;;;;0.95;100.00;96117.69;1011944;29;20006;-50
2021/04/19 02:13:28;;;;;;;34.72;26.35;;;;;;;0.94;100.00;96116.03;1008141;29;20728;-51
2021/04/19 02:14:06;;;;;;;33.35;25.02;;;;;;;0.86;100.00;96120.56;1019701;29;20630;-51
2021/04/19 02:14:50;;;;;;;32.70;24.90;;;;;;;0.90;100.00;96121.31;1019812;29;20259;-50
2021/04/19 02:15:32;;;;;;;34.67;25.17;;;;;;;0.86;100.00;96117.97;1011927;29;20281;-52
2021/04/19 02:16:13;;;;;;;29.38;22.73;;;;;;;0.91;100.00;96126.44;1011960;29;20367;-50
2021/04/19 02:16:48;;;;;;;33.63;26.05;;;;;;;0.88;100.00;96115.34;1019857;29;20796;-50
2021/04/19 02:17:32;;;;;;;32.00;25.20;;;;;;;0.84;100.00;96119.75;1019902;29;20141;-50
2021/04/19 02:18:24;;;;;;;35.17;26.17;;;;;;;0.90;100.00;96118.72;1019870;29;20260;-50
2021/04/19 02:19:06;;;;;;;33.63;25.95;;;;;;;0.72;100.00;96095.19;1019948;29;20351;-50
2021/04/19 02:19:57;;;;;;;32.67;25.05;;;;;;;0.90;100.00;96121.31;1019724;29;20318;-48
2021/04/19 02:20:46;;;;;;;33.72;25.60;;;;;;;0.89;100.00;96119.63;1020210;29;20291;-50
2021/04/19 02:21:37;;;;;;;37.70;26.23;;;;;;;0.91;100.00;96115.28;1021079;29;20263;-48
2021/04/19 02:22:24;;;;;;;37.20;25.45;;;;;;;0.95;100.00;96116.88;1023867;29;20266;-50
2021/04/19 02:22:58;;;;;;;37.20;27.50;;;;;;;0.94;100.00;96117.78;1020665;29;20263;-49
2021/04/19 02:23:32;;;;;;;34.42;25.45;;;;;;;0.92;100.00;96117.81;1019751;29;20251;-49
2021/04/19 02:24:06;;;;;;;33.60;25.20;;;;;;;0.94;100.00;96118.59;1011745;29;20272;-49
2021/04/19 02:24:48;;;;;;;34.72;24.17;;;;;;;0.95;100.00;96117.69;1012033;29;20264;-48
2021/04/19 02:25:30;;;;;;;33.13;26.58;;;;;;;0.96;100.00;96118.56;1012016;29;20273;-49
2021/04/19 02:26:14;;;;;;;31.83;24.50;;;;;;;0.99;100.00;96122.78;1015605;29;20343;-49
2021/04/19 02:26:52;;;;;;;31.05;24.58;;;;;;;1.01;100.00;96121.00;1019714;29;20260;-50
2021/04/19 02:27:39;;;;;;;35.55;26.58;;;;;;;1.02;100.00;96115.81;1015908;29;20347;-50
2021/04/19 02:28:14;;;;;;;31.10;24.17;;;;;;;1.02;100.00;96099.47;1008064;29;20266;-51
2021/04/19 02:28:50;;;;;;;33.40;25.08;;;;;;;1.13;100.00;96121.47;1004217;29;20807;-49
2021/04/19 02:29:41;;;;;;;32.03;25.67;;;;;;;1.13;100.00;96115.47;1011664;29;20261;-50
2021/04/19 02:30:15;;;;;;;35.85;26.63;;;;;;;1.17;100.00;96117.06;1008071;29;20273;-50
2021/04/19 02:30:48;;;;;;;31.95;25.38;;;;;;;1.16;100.00;96115.38;1012019;29;20433;-49
2021/04/19 02:31:19;;;;;;;35.38;26.85;;;;;;;1.14;100.00;96112.84;1023752;29;20266;-49